Burgos, Spain

6:05 PM CET on March 06, 2015 (GMT +0100)
Illera | Change Station
CLOSE
Current Station
Personal Weather Station
Location: Burgos, CASTILLA Y LE�N
Elevation: 2851 ft
Nearby Weather Stations

Elev 2851 ft 42.35 °N, 3.69 °W | Updated 17 seconds ago

Clear
Clear
69.3 °F
Feels Like 69.3 °F
N
0.0
Wind Variable Wind from ENE
Gusts 0.0 mph

Today
High -- | Low -- °F
--% Chance of Precip.
Yesterday
High -- | Low -- °F
Precip. -- in
7:42 AM 7:09 PM
Full, 99% visible
Pressure 30.36 in
Visibility -9999.0 miles
Clouds
Dew Point 20 °F
Humidity 15%
Rainfall in
Snow Depth Not available.
UV Not available.
Pollen Not available.
Air Quality Not available.
Flu Activity Not available.
METAR LEVT 061630Z 00000KT CAVOK 18/01 Q1028

More Conditions Fewer Conditions

Pressure 30.36 in
Visibility -9999.0 miles
Clouds
Dew Point 20 °F
Humidity 15%
Rainfall in
Snow Depth Not available.
UV Not available.
Pollen Not available.
Air Quality Not available.
Flu Activity Not available.
METAR LEVT 061630Z 00000KT CAVOK 18/01 Q1028

More Conditions Fewer Conditions

10-Day Weather Forecast

Almanac

Astronomy

Mar. 06, 2015 Rise Set
Actual Time
Civil Twilight
Nautical Twilight
Astronomical Twilight
Moon
Length of Visible Light
Length of Day
Tomorrow will be .
, % of the Moon is Illuminated

Today's Extremes

Country Highs Country Lows

Community

WunderPhotos

Upload Photos

1,803,337 photos uploaded!

WunderBlogs® & News

Nearby

Air Quality

  Air Quality AQ Index Pollutant
Not available.

Snow Depth

Station Depth Elevation

Earthquake Activity

City Distance Mag. Time & Date
Minimum magnitude displayed is 2.5.

Coastal Water Temperatures

Place Temperature

Nearby Weather Stations